sensor_id;sensor_type;location;lat;lon;timestamp;temperature;humidity
49465;DHT22;35358;49.342;8.802;2022-09-01T00:00:49;16.70;99.90
49465;DHT22;35358;49.342;8.802;2022-09-01T00:03:19;16.60;99.90
49465;DHT22;35358;49.342;8.802;2022-09-01T00:05:47;16.70;99.90
49465;DHT22;35358;49.342;8.802;2022-09-01T00:08:15;16.80;99.90
49465;DHT22;35358;49.342;8.802;2022-09-01T00:10:41;16.70;99.90
49465;DHT22;35358;49.342;8.802;2022-09-01T00:13:07;16.80;99.90
49465;DHT22;35358;49.342;8.802;2022-09-01T00:15:36;16.80;99.90
49465;DHT22;35358;49.342;8.802;2022-09-01T00:18:02;16.80;99.90
49465;DHT22;35358;49.342;8.802;2022-09-01T00:20:30;16.80;99.90
49465;DHT22;35358;49.342;8.802;2022-09-01T00:22:56;16.70;99.90
49465;DHT22;35358;49.342;8.802;2022-09-01T00:25:22;16.70;99.90
49465;DHT22;35358;49.342;8.802;2022-09-01T00:27:49;16.70;99.90
49465;DHT22;35358;49.342;8.802;2022-09-01T00:30:15;16.70;99.90
49465;DHT22;35358;49.342;8.802;2022-09-01T00:32:44;16.70;99.90
49465;DHT22;35358;49.342;8.802;2022-09-01T00:35:13;16.70;99.90
49465;DHT22;35358;49.342;8.802;2022-09-01T00:37:39;16.70;99.90
49465;DHT22;35358;49.342;8.802;2022-09-01T00:40:05;16.60;99.90
49465;DHT22;35358;49.342;8.802;2022-09-01T00:42:31;16.60;99.90
49465;DHT22;35358;49.342;8.802;2022-09-01T00:44:58;16.50;99.90
49465;DHT22;35358;49.342;8.802;2022-09-01T00:47:24;16.50;99.90
49465;DHT22;35358;49.342;8.802;2022-09-01T00:49:50;16.40;99.90
49465;DHT22;35358;49.342;8.802;2022-09-01T00:52:31;16.40;99.90
49465;DHT22;35358;49.342;8.802;2022-09-01T00:55:11;16.40;99.90
49465;DHT22;35358;49.342;8.802;2022-09-01T00:57:37;16.40;99.90
49465;DHT22;35358;49.342;8.802;2022-09-01T01:02:39;16.50;99.90
49465;DHT22;35358;49.342;8.802;2022-09-01T01:05:06;16.50;99.90
49465;DHT22;35358;49.342;8.802;2022-09-01T01:07:34;16.50;99.90
49465;DHT22;35358;49.342;8.802;2022-09-01T01:10:05;16.40;99.90
49465;DHT22;35358;49.342;8.802;2022-09-01T01:12:32;16.40;99.90
49465;DHT22;35358;49.342;8.802;2022-09-01T01:14:58;16.30;99.90
49465;DHT22;35358;49.342;8.802;2022-09-01T01:17:24;16.10;99.90
49465;DHT22;35358;49.342;8.802;2022-09-01T01:19:58;15.90;99.90
49465;DHT22;35358;49.342;8.802;2022-09-01T01:28:19;15.90;99.90
49465;DHT22;35358;49.342;8.802;2022-09-01T01:30:52;15.90;99.90
49465;DHT22;35358;49.342;8.802;2022-09-01T01:33:26;15.90;99.90
49465;DHT22;35358;49.342;8.802;2022-09-01T01:35:52;16.00;99.90
49465;DHT22;35358;49.342;8.802;2022-09-01T01:38:20;16.10;99.90
49465;DHT22;35358;49.342;8.802;2022-09-01T01:40:47;16.10;99.90
49465;DHT22;35358;49.342;8.802;2022-09-01T01:43:13;16.20;99.90
49465;DHT22;35358;49.342;8.802;2022-09-01T01:45:45;16.20;99.90
49465;DHT22;35358;49.342;8.802;2022-09-01T01:48:14;16.30;99.90
49465;DHT22;35358;49.342;8.802;2022-09-01T01:50:49;16.20;99.90
49465;DHT22;35358;49.342;8.802;2022-09-01T01:53:15;16.10;99.90
49465;DHT22;35358;49.342;8.802;2022-09-01T01:55:49;16.10;99.90
49465;DHT22;35358;49.342;8.802;2022-09-01T01:58:16;16.00;99.90
49465;DHT22;35358;49.342;8.802;2022-09-01T02:00:48;15.90;99.90
49465;DHT22;35358;49.342;8.802;2022-09-01T02:03:18;15.90;99.90
49465;DHT22;35358;49.342;8.802;2022-09-01T02:05:48;15.90;99.90
49465;DHT22;35358;49.342;8.802;2022-09-01T02:08:17;15.90;99.90
49465;DHT22;35358;49.342;8.802;2022-09-01T02:10:47;15.80;99.90
49465;DHT22;35358;49.342;8.802;2022-09-01T02:13:19;15.80;99.90
49465;DHT22;35358;49.342;8.802;2022-09-01T02:15:50;15.80;99.90
49465;DHT22;35358;49.342;8.802;2022-09-01T02:18:21;15.90;99.90
49465;DHT22;35358;49.342;8.802;2022-09-01T02:20:52;15.90;99.90
49465;DHT22;35358;49.342;8.802;2022-09-01T02:23:20;15.90;99.90
49465;DHT22;35358;49.342;8.802;2022-09-01T02:25:51;15.90;99.90
49465;DHT22;35358;49.342;8.802;2022-09-01T02:28:19;15.90;99.90
49465;DHT22;35358;49.342;8.802;2022-09-01T02:30:48;15.90;99.90
49465;DHT22;35358;49.342;8.802;2022-09-01T02:33:17;15.90;99.90
49465;DHT22;35358;49.342;8.802;2022-09-01T02:35:50;15.90;99.90
49465;DHT22;35358;49.342;8.802;2022-09-01T02:38:16;15.80;99.90
49465;DHT22;35358;49.342;8.802;2022-09-01T02:40:48;15.80;99.90
49465;DHT22;35358;49.342;8.802;2022-09-01T02:43:15;15.80;99.90
49465;DHT22;35358;49.342;8.802;2022-09-01T02:45:45;15.80;99.90
49465;DHT22;35358;49.342;8.802;2022-09-01T02:48:17;15.90;99.90
49465;DHT22;35358;49.342;8.802;2022-09-01T02:50:43;15.90;99.90
49465;DHT22;35358;49.342;8.802;2022-09-01T02:53:11;15.90;99.90
49465;DHT22;35358;49.342;8.802;2022-09-01T02:55:40;15.80;99.90
49465;DHT22;35358;49.342;8.802;2022-09-01T02:58:08;15.80;99.90
49465;DHT22;35358;49.342;8.802;2022-09-01T03:00:40;15.70;99.90
49465;DHT22;35358;49.342;8.802;2022-09-01T03:03:09;15.60;99.90
49465;DHT22;35358;49.342;8.802;2022-09-01T03:05:39;15.60;99.90
49465;DHT22;35358;49.342;8.802;2022-09-01T03:08:09;15.60;99.90
49465;DHT22;35358;49.342;8.802;2022-09-01T03:10:42;15.60;99.90
49465;DHT22;35358;49.342;8.802;2022-09-01T03:13:13;15.70;99.90
49465;DHT22;35358;49.342;8.802;2022-09-01T03:15:40;15.60;99.90
49465;DHT22;35358;49.342;8.802;2022-09-01T03:18:07;15.60;99.90
49465;DHT22;35358;49.342;8.802;2022-09-01T03:20:37;15.50;99.90
49465;DHT22;35358;49.342;8.802;2022-09-01T03:23:06;15.60;99.90
49465;DHT22;35358;49.342;8.802;2022-09-01T03:25:36;15.50;99.90
49465;DHT22;35358;49.342;8.802;2022-09-01T03:28:07;15.40;99.90
49465;DHT22;35358;49.342;8.802;2022-09-01T03:30:36;15.40;99.90
49465;DHT22;35358;49.342;8.802;2022-09-01T03:33:06;15.30;99.90
49465;DHT22;35358;49.342;8.802;2022-09-01T03:35:34;15.40;99.90
49465;DHT22;35358;49.342;8.802;2022-09-01T03:38:06;15.40;99.90
49465;DHT22;35358;49.342;8.802;2022-09-01T03:40:35;15.40;99.90
49465;DHT22;35358;49.342;8.802;2022-09-01T03:43:06;15.40;99.90
49465;DHT22;35358;49.342;8.802;2022-09-01T03:45:35;15.40;99.90
49465;DHT22;35358;49.342;8.802;2022-09-01T03:48:04;15.40;99.90
49465;DHT22;35358;49.342;8.802;2022-09-01T03:50:40;15.30;99.90
49465;DHT22;35358;49.342;8.802;2022-09-01T03:53:16;15.40;99.90
49465;DHT22;35358;49.342;8.802;2022-09-01T03:55:46;15.40;99.90
49465;DHT22;35358;49.342;8.802;2022-09-01T03:58:15;15.40;99.90
49465;DHT22;35358;49.342;8.802;2022-09-01T04:00:45;15.40;99.90
49465;DHT22;35358;49.342;8.802;2022-09-01T04:03:15;15.40;99.90
49465;DHT22;35358;49.342;8.802;2022-09-01T04:05:48;15.30;99.90
49465;DHT22;35358;49.342;8.802;2022-09-01T04:08:17;15.20;99.90
49465;DHT22;35358;49.342;8.802;2022-09-01T04:10:52;15.10;99.90
49465;DHT22;35358;49.342;8.802;2022-09-01T04:15:46;14.90;99.90
49465;DHT22;35358;49.342;8.802;2022-09-01T04:18:12;14.80;99.90
49465;DHT22;35358;49.342;8.802;2022-09-01T04:20:46;14.80;99.90
49465;DHT22;35358;49.342;8.802;2022-09-01T04:23:31;14.90;99.90
49465;DHT22;35358;49.342;8.802;2022-09-01T04:26:06;14.80;99.90
49465;DHT22;35358;49.342;8.802;2022-09-01T04:28:44;14.80;99.90
49465;DHT22;35358;49.342;8.802;2022-09-01T04:31:18;14.80;99.90
49465;DHT22;35358;49.342;8.802;2022-09-01T04:33:47;14.90;99.90
49465;DHT22;35358;49.342;8.802;2022-09-01T04:36:25;14.90;99.90
49465;DHT22;35358;49.342;8.802;2022-09-01T04:38:56;15.00;99.90
49465;DHT22;35358;49.342;8.802;2022-09-01T04:41:28;15.00;99.90
49465;DHT22;35358;49.342;8.802;2022-09-01T04:43:55;15.00;99.90
49465;DHT22;35358;49.342;8.802;2022-09-01T04:46:22;15.00;99.90
49465;DHT22;35358;49.342;8.802;2022-09-01T04:48:51;14.90;99.90
49465;DHT22;35358;49.342;8.802;2022-09-01T04:51:17;14.70;99.90
49465;DHT22;35358;49.342;8.802;2022-09-01T04:53:45;14.50;99.90
49465;DHT22;35358;49.342;8.802;2022-09-01T04:56:14;14.50;99.90
49465;DHT22;35358;49.342;8.802;2022-09-01T04:58:46;14.50;99.90
49465;DHT22;35358;49.342;8.802;2022-09-01T05:01:15;14.50;99.90
49465;DHT22;35358;49.342;8.802;2022-09-01T05:03:44;14.40;99.90
49465;DHT22;35358;49.342;8.802;2022-09-01T05:06:19;14.40;99.90
49465;DHT22;35358;49.342;8.802;2022-09-01T05:08:45;14.40;99.90
49465;DHT22;35358;49.342;8.802;2022-09-01T05:11:12;14.40;99.90
49465;DHT22;35358;49.342;8.802;2022-09-01T05:13:44;14.50;99.90
49465;DHT22;35358;49.342;8.802;2022-09-01T05:16:16;14.50;99.90
49465;DHT22;35358;49.342;8.802;2022-09-01T05:18:47;14.50;99.90
49465;DHT22;35358;49.342;8.802;2022-09-01T05:21:16;14.60;99.90
49465;DHT22;35358;49.342;8.802;2022-09-01T05:23:45;14.60;99.90
49465;DHT22;35358;49.342;8.802;2022-09-01T05:26:17;14.70;99.90
49465;DHT22;35358;49.342;8.802;2022-09-01T05:28:48;14.80;99.90
49465;DHT22;35358;49.342;8.802;2022-09-01T05:31:15;14.80;99.90
49465;DHT22;35358;49.342;8.802;2022-09-01T05:33:44;14.60;99.90
49465;DHT22;35358;49.342;8.802;2022-09-01T05:36:13;14.60;99.90
49465;DHT22;35358;49.342;8.802;2022-09-01T05:38:43;14.60;99.90
49465;DHT22;35358;49.342;8.802;2022-09-01T05:41:11;14.60;99.90
49465;DHT22;35358;49.342;8.802;2022-09-01T05:43:43;14.70;99.90
49465;DHT22;35358;49.342;8.802;2022-09-01T05:46:18;14.80;99.90
49465;DHT22;35358;49.342;8.802;2022-09-01T05:48:48;14.80;99.90
49465;DHT22;35358;49.342;8.802;2022-09-01T05:51:15;14.90;99.90
49465;DHT22;35358;49.342;8.802;2022-09-01T05:53:47;14.90;99.90
49465;DHT22;35358;49.342;8.802;2022-09-01T05:56:17;14.90;99.90
49465;DHT22;35358;49.342;8.802;2022-09-01T05:58:47;15.00;99.90
49465;DHT22;35358;49.342;8.802;2022-09-01T06:01:20;15.00;99.90
49465;DHT22;35358;49.342;8.802;2022-09-01T06:03:52;15.00;99.90
49465;DHT22;35358;49.342;8.802;2022-09-01T06:06:24;15.10;99.90
49465;DHT22;35358;49.342;8.802;2022-09-01T06:08:51;15.10;99.90
49465;DHT22;35358;49.342;8.802;2022-09-01T06:11:18;15.10;99.90
49465;DHT22;35358;49.342;8.802;2022-09-01T06:13:45;15.30;99.90
49465;DHT22;35358;49.342;8.802;2022-09-01T06:16:15;15.30;99.90
49465;DHT22;35358;49.342;8.802;2022-09-01T06:18:44;15.40;99.90
49465;DHT22;35358;49.342;8.802;2022-09-01T06:21:11;15.40;99.90
49465;DHT22;35358;49.342;8.802;2022-09-01T06:23:43;15.50;99.90
49465;DHT22;35358;49.342;8.802;2022-09-01T06:26:17;15.60;99.90
49465;DHT22;35358;49.342;8.802;2022-09-01T06:28:45;15.70;99.90
49465;DHT22;35358;49.342;8.802;2022-09-01T06:31:14;15.80;99.90
49465;DHT22;35358;49.342;8.802;2022-09-01T06:33:41;15.80;99.90
49465;DHT22;35358;49.342;8.802;2022-09-01T06:36:09;15.90;99.90
49465;DHT22;35358;49.342;8.802;2022-09-01T06:38:35;16.10;99.90
49465;DHT22;35358;49.342;8.802;2022-09-01T06:41:05;16.20;99.90
49465;DHT22;35358;49.342;8.802;2022-09-01T06:43:40;16.50;99.90
49465;DHT22;35358;49.342;8.802;2022-09-01T06:46:07;16.70;99.90
49465;DHT22;35358;49.342;8.802;2022-09-01T06:48:37;16.90;99.90
49465;DHT22;35358;49.342;8.802;2022-09-01T06:51:18;17.00;99.90
49465;DHT22;35358;49.342;8.802;2022-09-01T06:53:50;17.10;99.90
49465;DHT22;35358;49.342;8.802;2022-09-01T06:56:21;17.20;99.90
49465;DHT22;35358;49.342;8.802;2022-09-01T06:58:51;17.40;99.90
49465;DHT22;35358;49.342;8.802;2022-09-01T07:01:19;17.40;99.90
49465;DHT22;35358;49.342;8.802;2022-09-01T07:03:53;17.50;99.90
49465;DHT22;35358;49.342;8.802;2022-09-01T07:06:23;17.50;99.90
49465;DHT22;35358;49.342;8.802;2022-09-01T07:08:56;17.60;99.90
49465;DHT22;35358;49.342;8.802;2022-09-01T07:11:30;17.70;99.90
49465;DHT22;35358;49.342;8.802;2022-09-01T07:14:05;17.70;99.90
49465;DHT22;35358;49.342;8.802;2022-09-01T07:16:33;17.70;99.90
49465;DHT22;35358;49.342;8.802;2022-09-01T07:19:04;17.80;99.90
49465;DHT22;35358;49.342;8.802;2022-09-01T07:21:31;17.90;99.90
49465;DHT22;35358;49.342;8.802;2022-09-01T07:23:57;18.00;99.90
49465;DHT22;35358;49.342;8.802;2022-09-01T07:26:26;18.10;99.90
49465;DHT22;35358;49.342;8.802;2022-09-01T07:28:53;18.20;99.90
49465;DHT22;35358;49.342;8.802;2022-09-01T07:31:23;18.30;99.90
49465;DHT22;35358;49.342;8.802;2022-09-01T07:33:53;18.40;99.90
49465;DHT22;35358;49.342;8.802;2022-09-01T07:36:22;18.50;99.90
49465;DHT22;35358;49.342;8.802;2022-09-01T07:38:50;18.50;99.90
49465;DHT22;35358;49.342;8.802;2022-09-01T07:41:21;18.60;99.90
49465;DHT22;35358;49.342;8.802;2022-09-01T07:43:50;18.60;99.90
49465;DHT22;35358;49.342;8.802;2022-09-01T07:46:18;18.70;99.90
49465;DHT22;35358;49.342;8.802;2022-09-01T07:48:46;18.70;99.90
49465;DHT22;35358;49.342;8.802;2022-09-01T07:51:13;18.70;99.90
49465;DHT22;35358;49.342;8.802;2022-09-01T07:53:43;18.80;99.90
49465;DHT22;35358;49.342;8.802;2022-09-01T07:56:10;18.70;99.90
49465;DHT22;35358;49.342;8.802;2022-09-01T07:58:42;18.70;99.90
49465;DHT22;35358;49.342;8.802;2022-09-01T08:01:10;18.80;99.90
49465;DHT22;35358;49.342;8.802;2022-09-01T08:03:39;18.90;99.90
49465;DHT22;35358;49.342;8.802;2022-09-01T08:06:11;19.00;99.90
49465;DHT22;35358;49.342;8.802;2022-09-01T08:08:38;19.10;99.90
49465;DHT22;35358;49.342;8.802;2022-09-01T08:11:05;19.10;99.90
49465;DHT22;35358;49.342;8.802;2022-09-01T08:13:33;19.10;99.90
49465;DHT22;35358;49.342;8.802;2022-09-01T08:16:03;19.10;99.90
49465;DHT22;35358;49.342;8.802;2022-09-01T08:18:29;19.30;99.90
49465;DHT22;35358;49.342;8.802;2022-09-01T08:20:57;19.30;99.90
49465;DHT22;35358;49.342;8.802;2022-09-01T08:23:22;19.30;99.90
49465;DHT22;35358;49.342;8.802;2022-09-01T08:25:53;19.30;99.90
49465;DHT22;35358;49.342;8.802;2022-09-01T08:28:21;19.50;99.90
49465;DHT22;35358;49.342;8.802;2022-09-01T08:30:47;19.60;99.90
49465;DHT22;35358;49.342;8.802;2022-09-01T08:33:13;19.60;99.90
49465;DHT22;35358;49.342;8.802;2022-09-01T08:35:45;19.60;99.90
49465;DHT22;35358;49.342;8.802;2022-09-01T08:38:10;19.60;99.90
49465;DHT22;35358;49.342;8.802;2022-09-01T08:40:40;19.60;99.90
49465;DHT22;35358;49.342;8.802;2022-09-01T08:45:50;19.80;99.90
49465;DHT22;35358;49.342;8.802;2022-09-01T08:48:23;19.90;99.90
49465;DHT22;35358;49.342;8.802;2022-09-01T08:50:58;19.90;99.90
49465;DHT22;35358;49.342;8.802;2022-09-01T08:53:37;20.00;99.90
49465;DHT22;35358;49.342;8.802;2022-09-01T08:56:05;20.30;99.90
49465;DHT22;35358;49.342;8.802;2022-09-01T08:58:33;20.20;99.90
49465;DHT22;35358;49.342;8.802;2022-09-01T09:01:13;20.40;99.90
49465;DHT22;35358;49.342;8.802;2022-09-01T09:04:01;20.40;99.90
49465;DHT22;35358;49.342;8.802;2022-09-01T09:09:11;20.60;99.90
49465;DHT22;35358;49.342;8.802;2022-09-01T09:17:31;20.40;99.90
49465;DHT22;35358;49.342;8.802;2022-09-01T09:20:01;20.30;99.90
49465;DHT22;35358;49.342;8.802;2022-09-01T09:22:32;20.50;99.90
49465;DHT22;35358;49.342;8.802;2022-09-01T09:27:52;20.70;99.90
49465;DHT22;35358;49.342;8.802;2022-09-01T09:30:21;21.10;99.90
49465;DHT22;35358;49.342;8.802;2022-09-01T09:32:51;21.30;99.90
49465;DHT22;35358;49.342;8.802;2022-09-01T09:35:27;21.50;99.90
49465;DHT22;35358;49.342;8.802;2022-09-01T09:43:36;21.70;99.90
49465;DHT22;35358;49.342;8.802;2022-09-01T09:49:28;21.50;99.90
49465;DHT22;35358;49.342;8.802;2022-09-01T09:51:47;21.40;99.90
49465;DHT22;35358;49.342;8.802;2022-09-01T09:54:34;21.30;99.90
49465;DHT22;35358;49.342;8.802;2022-09-01T10:02:30;21.30;99.90
49465;DHT22;35358;49.342;8.802;2022-09-01T10:07:46;21.30;99.90
49465;DHT22;35358;49.342;8.802;2022-09-01T10:12:58;21.50;99.90
49465;DHT22;35358;49.342;8.802;2022-09-01T10:15:29;21.80;99.90
49465;DHT22;35358;49.342;8.802;2022-09-01T10:18:13;21.80;99.90
49465;DHT22;35358;49.342;8.802;2022-09-01T10:20:47;21.80;99.90
49465;DHT22;35358;49.342;8.802;2022-09-01T10:23:17;21.80;99.90
49465;DHT22;35358;49.342;8.802;2022-09-01T10:25:42;21.80;99.90
49465;DHT22;35358;49.342;8.802;2022-09-01T10:28:16;22.10;99.90
49465;DHT22;35358;49.342;8.802;2022-09-01T10:30:44;22.30;99.90
49465;DHT22;35358;49.342;8.802;2022-09-01T10:33:14;22.60;99.90
49465;DHT22;35358;49.342;8.802;2022-09-01T10:35:42;22.50;99.90
49465;DHT22;35358;49.342;8.802;2022-09-01T10:38:18;22.30;99.90
49465;DHT22;35358;49.342;8.802;2022-09-01T10:40:49;22.20;99.90
49465;DHT22;35358;49.342;8.802;2022-09-01T10:43:44;22.30;99.90
49465;DHT22;35358;49.342;8.802;2022-09-01T10:48:50;22.00;99.90
49465;DHT22;35358;49.342;8.802;2022-09-01T10:53:52;22.20;99.90
49465;DHT22;35358;49.342;8.802;2022-09-01T11:07:02;22.70;99.90
49465;DHT22;35358;49.342;8.802;2022-09-01T11:09:45;22.60;99.90
49465;DHT22;35358;49.342;8.802;2022-09-01T11:15:43;22.80;99.90
49465;DHT22;35358;49.342;8.802;2022-09-01T11:20:35;23.30;99.90
49465;DHT22;35358;49.342;8.802;2022-09-01T11:23:09;23.30;99.90
49465;DHT22;35358;49.342;8.802;2022-09-01T11:25:42;23.50;99.90
49465;DHT22;35358;49.342;8.802;2022-09-01T11:30:45;22.80;99.90
49465;DHT22;35358;49.342;8.802;2022-09-01T11:36:13;22.20;99.90
49465;DHT22;35358;49.342;8.802;2022-09-01T11:47:21;21.90;99.90
49465;DHT22;35358;49.342;8.802;2022-09-01T11:52:18;22.20;99.90
49465;DHT22;35358;49.342;8.802;2022-09-01T11:54:50;22.00;99.90
49465;DHT22;35358;49.342;8.802;2022-09-01T11:57:20;22.10;99.90
49465;DHT22;35358;49.342;8.802;2022-09-01T11:59:46;22.50;99.90
49465;DHT22;35358;49.342;8.802;2022-09-01T12:02:24;22.80;99.90
49465;DHT22;35358;49.342;8.802;2022-09-01T12:04:51;23.10;99.90
49465;DHT22;35358;49.342;8.802;2022-09-01T12:07:45;23.40;99.90
49465;DHT22;35358;49.342;8.802;2022-09-01T12:10:23;23.50;99.90
49465;DHT22;35358;49.342;8.802;2022-09-01T12:15:32;23.90;99.90
49465;DHT22;35358;49.342;8.802;2022-09-01T12:18:19;23.50;99.90
49465;DHT22;35358;49.342;8.802;2022-09-01T12:20:49;23.70;99.90
49465;DHT22;35358;49.342;8.802;2022-09-01T12:25:51;23.70;99.90
49465;DHT22;35358;49.342;8.802;2022-09-01T12:28:21;23.90;99.90
49465;DHT22;35358;49.342;8.802;2022-09-01T12:30:50;24.10;99.90
49465;DHT22;35358;49.342;8.802;2022-09-01T12:33:17;24.50;99.90
49465;DHT22;35358;49.342;8.802;2022-09-01T12:35:44;24.80;99.90
49465;DHT22;35358;49.342;8.802;2022-09-01T12:40:55;24.00;99.90
49465;DHT22;35358;49.342;8.802;2022-09-01T12:43:38;23.90;99.90
49465;DHT22;35358;49.342;8.802;2022-09-01T12:46:06;24.60;99.90
49465;DHT22;35358;49.342;8.802;2022-09-01T12:48:37;25.10;99.90
49465;DHT22;35358;49.342;8.802;2022-09-01T12:51:22;25.40;99.90
49465;DHT22;35358;49.342;8.802;2022-09-01T12:53:56;25.80;99.90
49465;DHT22;35358;49.342;8.802;2022-09-01T12:56:29;25.70;99.90
49465;DHT22;35358;49.342;8.802;2022-09-01T12:59:20;25.80;99.90
49465;DHT22;35358;49.342;8.802;2022-09-01T13:01:46;26.10;99.90
49465;DHT22;35358;49.342;8.802;2022-09-01T13:06:47;26.10;99.90
49465;DHT22;35358;49.342;8.802;2022-09-01T13:09:15;26.30;99.90
49465;DHT22;35358;49.342;8.802;2022-09-01T13:11:41;25.90;99.90
49465;DHT22;35358;49.342;8.802;2022-09-01T13:14:10;25.30;99.90
49465;DHT22;35358;49.342;8.802;2022-09-01T13:16:39;24.70;99.90
49465;DHT22;35358;49.342;8.802;2022-09-01T13:19:04;25.30;99.90
49465;DHT22;35358;49.342;8.802;2022-09-01T13:21:34;26.00;99.90
49465;DHT22;35358;49.342;8.802;2022-09-01T13:24:04;25.80;99.90
49465;DHT22;35358;49.342;8.802;2022-09-01T13:26:31;25.80;99.90
49465;DHT22;35358;49.342;8.802;2022-09-01T13:29:00;26.00;99.90
49465;DHT22;35358;49.342;8.802;2022-09-01T13:31:25;26.20;99.90
49465;DHT22;35358;49.342;8.802;2022-09-01T13:33:53;26.20;99.90
49465;DHT22;35358;49.342;8.802;2022-09-01T13:36:21;26.50;99.90
49465;DHT22;35358;49.342;8.802;2022-09-01T13:38:47;26.70;99.90
49465;DHT22;35358;49.342;8.802;2022-09-01T13:41:12;26.60;99.90
49465;DHT22;35358;49.342;8.802;2022-09-01T13:43:42;26.80;99.90
49465;DHT22;35358;49.342;8.802;2022-09-01T13:46:10;27.10;99.90
49465;DHT22;35358;49.342;8.802;2022-09-01T13:48:36;27.10;99.90
49465;DHT22;35358;49.342;8.802;2022-09-01T13:51:02;27.40;99.90
49465;DHT22;35358;49.342;8.802;2022-09-01T13:53:27;27.70;99.90
49465;DHT22;35358;49.342;8.802;2022-09-01T13:55:55;28.00;99.90
49465;DHT22;35358;49.342;8.802;2022-09-01T13:58:21;28.30;99.90
49465;DHT22;35358;49.342;8.802;2022-09-01T14:00:47;28.30;99.90
49465;DHT22;35358;49.342;8.802;2022-09-01T14:03:21;28.50;99.90
49465;DHT22;35358;49.342;8.802;2022-09-01T14:05:49;28.40;99.90
49465;DHT22;35358;49.342;8.802;2022-09-01T14:08:20;28.60;99.90
49465;DHT22;35358;49.342;8.802;2022-09-01T14:10:49;28.10;99.90
49465;DHT22;35358;49.342;8.802;2022-09-01T14:13:16;27.00;99.90
49465;DHT22;35358;49.342;8.802;2022-09-01T14:15:44;26.30;99.90
49465;DHT22;35358;49.342;8.802;2022-09-01T14:18:14;25.80;99.90
49465;DHT22;35358;49.342;8.802;2022-09-01T14:20:43;25.80;99.90
49465;DHT22;35358;49.342;8.802;2022-09-01T14:23:13;26.30;99.90
49465;DHT22;35358;49.342;8.802;2022-09-01T14:25:49;27.20;99.90
49465;DHT22;35358;49.342;8.802;2022-09-01T14:28:19;27.70;99.90
49465;DHT22;35358;49.342;8.802;2022-09-01T14:30:45;28.00;99.90
49465;DHT22;35358;49.342;8.802;2022-09-01T14:33:12;27.50;99.90
49465;DHT22;35358;49.342;8.802;2022-09-01T14:35:40;26.80;99.90
49465;DHT22;35358;49.342;8.802;2022-09-01T14:38:06;26.70;99.90
49465;DHT22;35358;49.342;8.802;2022-09-01T14:40:34;27.70;99.90
49465;DHT22;35358;49.342;8.802;2022-09-01T14:43:02;28.10;99.90
49465;DHT22;35358;49.342;8.802;2022-09-01T14:45:28;28.00;99.90
49465;DHT22;35358;49.342;8.802;2022-09-01T14:47:59;27.90;99.90
49465;DHT22;35358;49.342;8.802;2022-09-01T14:50:27;28.10;99.90
49465;DHT22;35358;49.342;8.802;2022-09-01T14:52:57;28.00;99.90
49465;DHT22;35358;49.342;8.802;2022-09-01T14:55:27;26.60;99.90
49465;DHT22;35358;49.342;8.802;2022-09-01T14:57:56;26.60;99.90
49465;DHT22;35358;49.342;8.802;2022-09-01T15:00:27;26.20;99.90
49465;DHT22;35358;49.342;8.802;2022-09-01T15:02:56;25.80;99.90
49465;DHT22;35358;49.342;8.802;2022-09-01T15:05:22;25.50;99.90
49465;DHT22;35358;49.342;8.802;2022-09-01T15:07:48;25.90;99.90
49465;DHT22;35358;49.342;8.802;2022-09-01T15:10:17;26.10;99.90
49465;DHT22;35358;49.342;8.802;2022-09-01T15:12:42;26.00;99.90
49465;DHT22;35358;49.342;8.802;2022-09-01T15:15:09;25.60;99.90
49465;DHT22;35358;49.342;8.802;2022-09-01T15:17:34;25.20;99.90
49465;DHT22;35358;49.342;8.802;2022-09-01T15:20:02;25.00;99.90
49465;DHT22;35358;49.342;8.802;2022-09-01T15:22:49;24.80;99.90
49465;DHT22;35358;49.342;8.802;2022-09-01T15:25:16;24.50;99.90
49465;DHT22;35358;49.342;8.802;2022-09-01T15:27:42;24.40;99.90
49465;DHT22;35358;49.342;8.802;2022-09-01T15:30:08;24.40;99.90
49465;DHT22;35358;49.342;8.802;2022-09-01T15:32:46;24.40;99.90
49465;DHT22;35358;49.342;8.802;2022-09-01T15:35:15;24.90;99.90
49465;DHT22;35358;49.342;8.802;2022-09-01T15:37:45;25.90;99.90
49465;DHT22;35358;49.342;8.802;2022-09-01T15:40:16;26.20;99.90
49465;DHT22;35358;49.342;8.802;2022-09-01T15:42:45;26.20;99.90
49465;DHT22;35358;49.342;8.802;2022-09-01T15:45:22;26.70;99.90
49465;DHT22;35358;49.342;8.802;2022-09-01T15:47:48;26.50;99.90
49465;DHT22;35358;49.342;8.802;2022-09-01T15:50:16;26.40;99.90
49465;DHT22;35358;49.342;8.802;2022-09-01T15:52:57;26.20;99.90
49465;DHT22;35358;49.342;8.802;2022-09-01T15:55:36;25.60;99.90
49465;DHT22;35358;49.342;8.802;2022-09-01T15:58:02;26.30;99.90
49465;DHT22;35358;49.342;8.802;2022-09-01T16:00:30;26.40;99.90
49465;DHT22;35358;49.342;8.802;2022-09-01T16:02:57;25.80;99.90
49465;DHT22;35358;49.342;8.802;2022-09-01T16:05:26;26.00;99.90
49465;DHT22;35358;49.342;8.802;2022-09-01T16:07:54;26.60;99.90
49465;DHT22;35358;49.342;8.802;2022-09-01T16:10:22;26.80;99.90
49465;DHT22;35358;49.342;8.802;2022-09-01T16:12:48;26.60;99.90
49465;DHT22;35358;49.342;8.802;2022-09-01T16:15:18;26.40;99.90
49465;DHT22;35358;49.342;8.802;2022-09-01T16:20:52;26.60;99.90
49465;DHT22;35358;49.342;8.802;2022-09-01T16:23:23;25.90;99.90
49465;DHT22;35358;49.342;8.802;2022-09-01T16:25:49;25.70;99.90
49465;DHT22;35358;49.342;8.802;2022-09-01T16:28:30;26.00;99.90
49465;DHT22;35358;49.342;8.802;2022-09-01T16:31:11;25.90;99.90
49465;DHT22;35358;49.342;8.802;2022-09-01T16:33:37;26.00;99.90
49465;DHT22;35358;49.342;8.802;2022-09-01T16:38:51;26.00;99.90
49465;DHT22;35358;49.342;8.802;2022-09-01T16:46:26;26.20;99.90
49465;DHT22;35358;49.342;8.802;2022-09-01T16:51:36;26.20;99.90
49465;DHT22;35358;49.342;8.802;2022-09-01T16:54:28;25.80;99.90
49465;DHT22;35358;49.342;8.802;2022-09-01T16:59:58;25.60;99.90
49465;DHT22;35358;49.342;8.802;2022-09-01T17:02:34;25.70;99.90
49465;DHT22;35358;49.342;8.802;2022-09-01T17:05:26;25.40;99.90
49465;DHT22;35358;49.342;8.802;2022-09-01T17:08:20;25.10;99.90
49465;DHT22;35358;49.342;8.802;2022-09-01T17:13:37;24.90;99.90
49465;DHT22;35358;49.342;8.802;2022-09-01T17:16:15;24.90;99.90
49465;DHT22;35358;49.342;8.802;2022-09-01T17:18:58;24.80;99.90
49465;DHT22;35358;49.342;8.802;2022-09-01T17:21:42;24.50;99.90
49465;DHT22;35358;49.342;8.802;2022-09-01T17:24:38;24.20;99.90
49465;DHT22;35358;49.342;8.802;2022-09-01T17:29:57;23.60;99.90
49465;DHT22;35358;49.342;8.802;2022-09-01T17:35:31;23.40;99.90
49465;DHT22;35358;49.342;8.802;2022-09-01T17:44:22;22.90;99.90
49465;DHT22;35358;49.342;8.802;2022-09-01T17:47:03;22.70;99.90
49465;DHT22;35358;49.342;8.802;2022-09-01T17:52:43;22.30;99.90
49465;DHT22;35358;49.342;8.802;2022-09-01T17:57:47;22.30;99.90
49465;DHT22;35358;49.342;8.802;2022-09-01T18:00:22;22.10;99.90